sensor_id;sensor_type;location;lat;lon;timestamp;pressure;altitude;pressure_sealevel;temperature;humidity
17593;BME280;8915;51.760;14.300;2023-05-10T00:00:11;100704.88;;;10.18;58.30
17593;BME280;8915;51.760;14.300;2023-05-10T00:02:38;100703.22;;;10.14;57.99
17593;BME280;8915;51.760;14.300;2023-05-10T00:05:06;100704.94;;;10.10;58.18
17593;BME280;8915;51.760;14.300;2023-05-10T00:07:33;100695.31;;;10.05;58.21
17593;BME280;8915;51.760;14.300;2023-05-10T00:09:59;100694.41;;;10.01;58.84
17593;BME280;8915;51.760;14.300;2023-05-10T00:12:26;100691.59;;;9.98;58.90
17593;BME280;8915;51.760;14.300;2023-05-10T00:14:53;100694.09;;;9.94;58.92
17593;BME280;8915;51.760;14.300;2023-05-10T00:17:20;100691.81;;;9.93;59.26
17593;BME280;8915;51.760;14.300;2023-05-10T00:19:47;100690.56;;;9.90;58.85
17593;BME280;8915;51.760;14.300;2023-05-10T00:22:13;100685.94;;;9.87;58.75
17593;BME280;8915;51.760;14.300;2023-05-10T00:24:40;100680.97;;;9.86;59.21
17593;BME280;8915;51.760;14.300;2023-05-10T00:27:06;100681.28;;;9.84;59.70
17593;BME280;8915;51.760;14.300;2023-05-10T00:29:33;100680.81;;;9.82;59.44
17593;BME280;8915;51.760;14.300;2023-05-10T00:32:01;100677.28;;;9.78;58.84
17593;BME280;8915;51.760;14.300;2023-05-10T00:34:28;100674.19;;;9.76;59.32
17593;BME280;8915;51.760;14.300;2023-05-10T00:36:55;100672.19;;;9.73;59.43
17593;BME280;8915;51.760;14.300;2023-05-10T00:39:21;100671.25;;;9.69;59.92
17593;BME280;8915;51.760;14.300;2023-05-10T00:41:48;100666.94;;;9.65;59.47
17593;BME280;8915;51.760;14.300;2023-05-10T00:44:16;100669.75;;;9.60;59.59
17593;BME280;8915;51.760;14.300;2023-05-10T00:46:44;100665.13;;;9.57;60.16
17593;BME280;8915;51.760;14.300;2023-05-10T00:49:12;100666.53;;;9.54;60.89
17593;BME280;8915;51.760;14.300;2023-05-10T00:51:38;100664.50;;;9.51;60.89
17593;BME280;8915;51.760;14.300;2023-05-10T00:54:08;100662.50;;;9.48;60.87
17593;BME280;8915;51.760;14.300;2023-05-10T00:56:34;100664.25;;;9.44;60.34
17593;BME280;8915;51.760;14.300;2023-05-10T00:59:00;100661.44;;;9.41;60.81
17593;BME280;8915;51.760;14.300;2023-05-10T01:01:27;100650.75;;;9.37;60.24
17593;BME280;8915;51.760;14.300;2023-05-10T01:03:55;100660.06;;;9.35;61.07
17593;BME280;8915;51.760;14.300;2023-05-10T01:06:23;100653.91;;;9.31;60.75
17593;BME280;8915;51.760;14.300;2023-05-10T01:08:51;100661.31;;;9.29;61.54
17593;BME280;8915;51.760;14.300;2023-05-10T01:11:17;100650.66;;;9.25;60.65
17593;BME280;8915;51.760;14.300;2023-05-10T01:13:47;100650.50;;;9.22;60.91
17593;BME280;8915;51.760;14.300;2023-05-10T01:16:17;100645.53;;;9.20;62.62
17593;BME280;8915;51.760;14.300;2023-05-10T01:18:44;100644.31;;;9.18;61.71
17593;BME280;8915;51.760;14.300;2023-05-10T01:21:19;100642.28;;;9.15;62.05
17593;BME280;8915;51.760;14.300;2023-05-10T01:24:22;100650.06;;;9.11;62.64
17593;BME280;8915;51.760;14.300;2023-05-10T01:27:13;100646.50;;;9.07;61.58
17593;BME280;8915;51.760;14.300;2023-05-10T01:32:53;100651.94;;;9.02;62.40
17593;BME280;8915;51.760;14.300;2023-05-10T01:35:29;100652.56;;;8.99;62.93
17593;BME280;8915;51.760;14.300;2023-05-10T01:38:04;100644.53;;;8.96;63.03
17593;BME280;8915;51.760;14.300;2023-05-10T01:40:38;100647.00;;;8.92;63.12
17593;BME280;8915;51.760;14.300;2023-05-10T01:43:09;100647.31;;;8.91;64.04
17593;BME280;8915;51.760;14.300;2023-05-10T01:45:40;100640.03;;;8.88;63.77
17593;BME280;8915;51.760;14.300;2023-05-10T01:48:10;100642.50;;;8.84;63.98
17593;BME280;8915;51.760;14.300;2023-05-10T01:50:40;100632.94;;;8.80;63.31
17593;BME280;8915;51.760;14.300;2023-05-10T01:53:09;100645.59;;;8.78;64.33
17593;BME280;8915;51.760;14.300;2023-05-10T01:55:43;100639.41;;;8.74;63.89
17593;BME280;8915;51.760;14.300;2023-05-10T01:58:14;100637.72;;;8.69;64.01
17593;BME280;8915;51.760;14.300;2023-05-10T02:00:43;100643.28;;;8.68;65.00
17593;BME280;8915;51.760;14.300;2023-05-10T02:03:13;100641.59;;;8.63;64.70
17593;BME280;8915;51.760;14.300;2023-05-10T02:05:41;100639.56;;;8.60;64.39
17593;BME280;8915;51.760;14.300;2023-05-10T02:08:09;100638.66;;;8.56;65.04
17593;BME280;8915;51.760;14.300;2023-05-10T02:10:37;100643.75;;;8.53;64.97
17593;BME280;8915;51.760;14.300;2023-05-10T02:13:05;100641.75;;;8.50;65.25
17593;BME280;8915;51.760;14.300;2023-05-10T02:15:34;100640.53;;;8.47;64.50
17593;BME280;8915;51.760;14.300;2023-05-10T02:18:02;100632.47;;;8.44;64.64
17593;BME280;8915;51.760;14.300;2023-05-10T02:20:31;100633.09;;;8.41;64.98
17593;BME280;8915;51.760;14.300;2023-05-10T02:22:59;100625.50;;;8.39;64.97
17593;BME280;8915;51.760;14.300;2023-05-10T02:25:28;100632.16;;;8.37;64.79
17593;BME280;8915;51.760;14.300;2023-05-10T02:27:56;100632.78;;;8.34;65.66
17593;BME280;8915;51.760;14.300;2023-05-10T02:30:24;100628.91;;;8.31;64.76
17593;BME280;8915;51.760;14.300;2023-05-10T02:32:51;100624.25;;;8.28;64.36
17593;BME280;8915;51.760;14.300;2023-05-10T02:35:18;100621.63;;;8.28;65.14
17593;BME280;8915;51.760;14.300;2023-05-10T02:37:47;100621.47;;;8.25;65.11
17593;BME280;8915;51.760;14.300;2023-05-10T02:40:15;100621.00;;;8.23;64.83
17593;BME280;8915;51.760;14.300;2023-05-10T02:42:43;100623.44;;;8.19;64.77
17593;BME280;8915;51.760;14.300;2023-05-10T02:45:12;100616.63;;;8.18;65.30
17593;BME280;8915;51.760;14.300;2023-05-10T02:47:41;100617.25;;;8.15;65.71
17593;BME280;8915;51.760;14.300;2023-05-10T02:50:09;100609.66;;;8.14;66.17
17593;BME280;8915;51.760;14.300;2023-05-10T02:52:39;100611.84;;;8.12;65.48
17593;BME280;8915;51.760;14.300;2023-05-10T02:55:09;100613.25;;;8.09;65.17
17593;BME280;8915;51.760;14.300;2023-05-10T02:57:41;100614.63;;;8.07;66.06
17593;BME280;8915;51.760;14.300;2023-05-10T03:00:10;100609.66;;;8.05;66.01
17593;BME280;8915;51.760;14.300;2023-05-10T03:02:36;100608.13;;;8.04;66.53
17593;BME280;8915;51.760;14.300;2023-05-10T03:05:03;100610.28;;;8.02;65.74
17593;BME280;8915;51.760;14.300;2023-05-10T03:07:30;100604.25;;;8.02;66.09
17593;BME280;8915;51.760;14.300;2023-05-10T03:09:57;100607.19;;;8.00;66.13
17593;BME280;8915;51.760;14.300;2023-05-10T03:12:33;100608.28;;;7.99;65.82
17593;BME280;8915;51.760;14.300;2023-05-10T03:15:11;100606.69;;;7.98;66.54
17593;BME280;8915;51.760;14.300;2023-05-10T03:17:45;100604.06;;;7.98;65.71
17593;BME280;8915;51.760;14.300;2023-05-10T03:20:21;100601.78;;;7.97;64.87
17593;BME280;8915;51.760;14.300;2023-05-10T03:22:51;100607.03;;;7.97;66.48
17593;BME280;8915;51.760;14.300;2023-05-10T03:25:20;100603.63;;;7.96;66.46
17593;BME280;8915;51.760;14.300;2023-05-10T03:27:49;100602.81;;;7.96;65.95
17593;BME280;8915;51.760;14.300;2023-05-10T03:30:16;100599.44;;;7.95;65.79
17593;BME280;8915;51.760;14.300;2023-05-10T03:32:43;100602.81;;;7.96;66.06
17593;BME280;8915;51.760;14.300;2023-05-10T03:35:11;100599.13;;;7.97;66.32
17593;BME280;8915;51.760;14.300;2023-05-10T03:37:38;100603.63;;;7.96;65.97
17593;BME280;8915;51.760;14.300;2023-05-10T03:40:06;100598.34;;;7.96;66.05
17593;BME280;8915;51.760;14.300;2023-05-10T03:42:35;100599.44;;;7.95;65.74
17593;BME280;8915;51.760;14.300;2023-05-10T03:45:03;100593.09;;;7.96;64.64
17593;BME280;8915;51.760;14.300;2023-05-10T03:47:29;100597.41;;;8.01;65.79
17593;BME280;8915;51.760;14.300;2023-05-10T03:49:57;100602.38;;;8.02;66.39
17593;BME280;8915;51.760;14.300;2023-05-10T03:52:23;100601.63;;;8.02;65.75
17593;BME280;8915;51.760;14.300;2023-05-10T03:54:50;100595.72;;;8.05;65.77
17593;BME280;8915;51.760;14.300;2023-05-10T03:57:17;100595.44;;;8.06;65.63
17593;BME280;8915;51.760;14.300;2023-05-10T03:59:43;100598.06;;;8.06;66.03
17593;BME280;8915;51.760;14.300;2023-05-10T04:02:11;100594.81;;;8.09;66.34
17593;BME280;8915;51.760;14.300;2023-05-10T04:04:38;100599.75;;;8.11;65.31
17593;BME280;8915;51.760;14.300;2023-05-10T04:07:04;100594.66;;;8.14;65.78
17593;BME280;8915;51.760;14.300;2023-05-10T04:09:30;100597.13;;;8.19;65.24
17593;BME280;8915;51.760;14.300;2023-05-10T04:11:58;100597.34;;;8.23;65.66
17593;BME280;8915;51.760;14.300;2023-05-10T04:14:25;100596.09;;;8.29;65.65
17593;BME280;8915;51.760;14.300;2023-05-10T04:16:51;100600.44;;;8.33;64.74
17593;BME280;8915;51.760;14.300;2023-05-10T04:19:19;100585.72;;;8.41;65.05
17593;BME280;8915;51.760;14.300;2023-05-10T04:21:45;100604.44;;;8.48;65.60
17593;BME280;8915;51.760;14.300;2023-05-10T04:24:12;100597.63;;;8.55;64.91
17593;BME280;8915;51.760;14.300;2023-05-10T04:26:38;100602.91;;;8.64;65.12
17593;BME280;8915;51.760;14.300;2023-05-10T04:29:05;100594.50;;;8.70;65.01
17593;BME280;8915;51.760;14.300;2023-05-10T04:31:31;100593.75;;;8.78;64.42
17593;BME280;8915;51.760;14.300;2023-05-10T04:33:58;100583.50;;;8.85;64.48
17593;BME280;8915;51.760;14.300;2023-05-10T04:36:26;100588.44;;;8.95;64.14
17593;BME280;8915;51.760;14.300;2023-05-10T04:38:52;100591.03;;;9.04;63.96
17593;BME280;8915;51.760;14.300;2023-05-10T04:41:19;100583.88;;;9.13;63.61
17593;BME280;8915;51.760;14.300;2023-05-10T04:43:45;100602.78;;;9.23;63.64
17593;BME280;8915;51.760;14.300;2023-05-10T04:46:14;100598.56;;;9.31;63.13
17593;BME280;8915;51.760;14.300;2023-05-10T04:48:40;100589.38;;;9.37;63.15
17593;BME280;8915;51.760;14.300;2023-05-10T04:51:07;100601.44;;;9.46;63.04
17593;BME280;8915;51.760;14.300;2023-05-10T04:53:34;100596.13;;;9.55;63.10
17593;BME280;8915;51.760;14.300;2023-05-10T04:56:01;100600.09;;;9.61;62.52
17593;BME280;8915;51.760;14.300;2023-05-10T04:58:28;100599.31;;;9.69;62.36
17593;BME280;8915;51.760;14.300;2023-05-10T05:00:54;100595.06;;;9.76;62.07
17593;BME280;8915;51.760;14.300;2023-05-10T05:03:21;100600.31;;;9.85;62.27
17593;BME280;8915;51.760;14.300;2023-05-10T05:05:47;100599.03;;;9.91;62.69
17593;BME280;8915;51.760;14.300;2023-05-10T05:08:14;100603.00;;;9.97;61.82
17593;BME280;8915;51.760;14.300;2023-05-10T05:10:42;100598.03;;;10.04;61.69
17593;BME280;8915;51.760;14.300;2023-05-10T05:13:08;100600.16;;;10.10;61.91
17593;BME280;8915;51.760;14.300;2023-05-10T05:15:34;100601.53;;;10.16;61.67
17593;BME280;8915;51.760;14.300;2023-05-10T05:18:01;100601.34;;;10.21;61.68
17593;BME280;8915;51.760;14.300;2023-05-10T05:20:27;100604.22;;;10.28;61.57
17593;BME280;8915;51.760;14.300;2023-05-10T05:22:53;100594.69;;;10.36;61.16
17593;BME280;8915;51.760;14.300;2023-05-10T05:25:20;100599.13;;;10.44;60.83
17593;BME280;8915;51.760;14.300;2023-05-10T05:27:48;100592.56;;;10.50;60.58
17593;BME280;8915;51.760;14.300;2023-05-10T05:30:14;100593.25;;;10.59;61.06
17593;BME280;8915;51.760;14.300;2023-05-10T05:32:41;100588.22;;;10.66;60.46
17593;BME280;8915;51.760;14.300;2023-05-10T05:35:07;100595.59;;;10.72;60.71
17593;BME280;8915;51.760;14.300;2023-05-10T05:37:34;100588.06;;;10.83;59.73
17593;BME280;8915;51.760;14.300;2023-05-10T05:40:00;100589.81;;;10.91;60.42
17593;BME280;8915;51.760;14.300;2023-05-10T05:42:27;100596.13;;;10.98;60.52
17593;BME280;8915;51.760;14.300;2023-05-10T05:44:55;100589.97;;;11.06;60.39
17593;BME280;8915;51.760;14.300;2023-05-10T05:47:21;100577.88;;;11.17;59.43
17593;BME280;8915;51.760;14.300;2023-05-10T05:49:47;100577.00;;;11.25;59.73
17593;BME280;8915;51.760;14.300;2023-05-10T05:52:14;100578.88;;;11.37;59.09
17593;BME280;8915;51.760;14.300;2023-05-10T05:54:40;100579.44;;;11.42;59.00
17593;BME280;8915;51.760;14.300;2023-05-10T05:57:06;100581.66;;;11.52;58.32
17593;BME280;8915;51.760;14.300;2023-05-10T05:59:34;100572.50;;;11.62;58.80
17593;BME280;8915;51.760;14.300;2023-05-10T06:02:01;100570.09;;;11.69;58.90
17593;BME280;8915;51.760;14.300;2023-05-10T06:04:28;100575.38;;;11.81;58.48
17593;BME280;8915;51.760;14.300;2023-05-10T06:06:54;100577.09;;;11.89;58.81
17593;BME280;8915;51.760;14.300;2023-05-10T06:09:20;100575.22;;;12.01;58.22
17593;BME280;8915;51.760;14.300;2023-05-10T06:11:48;100577.94;;;12.17;57.65
17593;BME280;8915;51.760;14.300;2023-05-10T06:14:15;100576.69;;;12.26;58.00
17593;BME280;8915;51.760;14.300;2023-05-10T06:16:41;100577.31;;;12.35;57.68
17593;BME280;8915;51.760;14.300;2023-05-10T06:19:09;100577.97;;;12.44;57.70
17593;BME280;8915;51.760;14.300;2023-05-10T06:21:35;100571.81;;;12.56;57.39
17593;BME280;8915;51.760;14.300;2023-05-10T06:24:02;100576.63;;;12.66;57.48
17593;BME280;8915;51.760;14.300;2023-05-10T06:26:28;100570.84;;;12.76;56.46
17593;BME280;8915;51.760;14.300;2023-05-10T06:28:55;100573.00;;;12.86;57.78
17593;BME280;8915;51.760;14.300;2023-05-10T06:31:21;100566.09;;;12.97;56.93
17593;BME280;8915;51.760;14.300;2023-05-10T06:33:47;100567.13;;;13.08;56.89
17593;BME280;8915;51.760;14.300;2023-05-10T06:36:15;100572.13;;;13.25;54.65
17593;BME280;8915;51.760;14.300;2023-05-10T06:38:42;100569.38;;;13.37;54.79
17593;BME280;8915;51.760;14.300;2023-05-10T06:41:08;100565.00;;;13.44;55.91
17593;BME280;8915;51.760;14.300;2023-05-10T06:43:34;100572.16;;;13.59;54.54
17593;BME280;8915;51.760;14.300;2023-05-10T06:46:05;100566.66;;;13.68;55.10
17593;BME280;8915;51.760;14.300;2023-05-10T06:48:31;100567.59;;;13.75;54.91
17593;BME280;8915;51.760;14.300;2023-05-10T06:50:58;100557.28;;;13.89;54.24
17593;BME280;8915;51.760;14.300;2023-05-10T06:53:25;100568.13;;;14.00;54.75
17593;BME280;8915;51.760;14.300;2023-05-10T06:55:52;100571.00;;;14.10;53.89
17593;BME280;8915;51.760;14.300;2023-05-10T06:58:19;100576.22;;;14.22;54.17
17593;BME280;8915;51.760;14.300;2023-05-10T07:00:45;100564.75;;;14.37;53.26
17593;BME280;8915;51.760;14.300;2023-05-10T07:03:12;100569.84;;;14.46;53.30
17593;BME280;8915;51.760;14.300;2023-05-10T07:05:38;100565.84;;;14.55;53.89
17593;BME280;8915;51.760;14.300;2023-05-10T07:08:05;100572.94;;;14.70;53.57
17593;BME280;8915;51.760;14.300;2023-05-10T07:10:33;100572.72;;;14.79;53.24
17593;BME280;8915;51.760;14.300;2023-05-10T07:12:59;100573.75;;;14.93;51.97
17593;BME280;8915;51.760;14.300;2023-05-10T07:15:26;100570.06;;;15.01;52.69
17593;BME280;8915;51.760;14.300;2023-05-10T07:17:53;100565.28;;;15.10;53.24
17593;BME280;8915;51.760;14.300;2023-05-10T07:20:19;100567.00;;;15.22;51.34
17593;BME280;8915;51.760;14.300;2023-05-10T07:22:45;100576.34;;;15.35;52.21
17593;BME280;8915;51.760;14.300;2023-05-10T07:25:12;100573.44;;;15.43;51.02
17593;BME280;8915;51.760;14.300;2023-05-10T07:27:40;100574.31;;;15.51;50.31
17593;BME280;8915;51.760;14.300;2023-05-10T07:30:07;100572.19;;;15.60;50.94
17593;BME280;8915;51.760;14.300;2023-05-10T07:32:34;100564.72;;;15.69;50.79
17593;BME280;8915;51.760;14.300;2023-05-10T07:35:00;100566.75;;;15.79;49.72
17593;BME280;8915;51.760;14.300;2023-05-10T07:37:26;100573.00;;;15.90;50.41
17593;BME280;8915;51.760;14.300;2023-05-10T07:39:53;100565.50;;;15.99;50.68
17593;BME280;8915;51.760;14.300;2023-05-10T07:42:19;100565.59;;;16.06;49.67
17593;BME280;8915;51.760;14.300;2023-05-10T07:44:47;100564.16;;;16.15;50.77
17593;BME280;8915;51.760;14.300;2023-05-10T07:47:13;100570.00;;;16.24;50.42
17593;BME280;8915;51.760;14.300;2023-05-10T07:49:39;100561.00;;;16.36;49.18
17593;BME280;8915;51.760;14.300;2023-05-10T07:52:06;100563.41;;;16.44;48.81
17593;BME280;8915;51.760;14.300;2023-05-10T07:54:32;100563.13;;;16.53;48.91
17593;BME280;8915;51.760;14.300;2023-05-10T07:56:59;100563.59;;;16.62;48.35
17593;BME280;8915;51.760;14.300;2023-05-10T07:59:26;100550.31;;;16.69;48.02
17593;BME280;8915;51.760;14.300;2023-05-10T08:01:53;100561.09;;;16.79;48.86
17593;BME280;8915;51.760;14.300;2023-05-10T08:04:19;100563.09;;;16.89;48.41
17593;BME280;8915;51.760;14.300;2023-05-10T08:06:46;100560.88;;;16.98;47.85
17593;BME280;8915;51.760;14.300;2023-05-10T08:09:13;100558.69;;;17.07;47.98
17593;BME280;8915;51.760;14.300;2023-05-10T08:11:39;100557.22;;;17.17;47.46
17593;BME280;8915;51.760;14.300;2023-05-10T08:14:05;100564.53;;;17.27;48.81
17593;BME280;8915;51.760;14.300;2023-05-10T08:16:32;100562.34;;;17.36;48.24
17593;BME280;8915;51.760;14.300;2023-05-10T08:19:00;100555.94;;;17.44;46.36
17593;BME280;8915;51.760;14.300;2023-05-10T08:21:27;100564.38;;;17.53;47.38
17593;BME280;8915;51.760;14.300;2023-05-10T08:23:53;100559.13;;;17.63;47.15
17593;BME280;8915;51.760;14.300;2023-05-10T08:26:19;100562.97;;;17.73;47.24
17593;BME280;8915;51.760;14.300;2023-05-10T08:28:46;100567.63;;;17.83;46.09
17593;BME280;8915;51.760;14.300;2023-05-10T08:31:12;100568.41;;;17.90;46.27
17593;BME280;8915;51.760;14.300;2023-05-10T08:33:39;100567.34;;;17.98;46.06
17593;BME280;8915;51.760;14.300;2023-05-10T08:36:07;100557.44;;;18.09;45.98
17593;BME280;8915;51.760;14.300;2023-05-10T08:38:33;100553.66;;;18.17;45.63
17593;BME280;8915;51.760;14.300;2023-05-10T08:41:02;100563.25;;;18.25;44.57
17593;BME280;8915;51.760;14.300;2023-05-10T08:43:29;100554.06;;;18.30;46.37
17593;BME280;8915;51.760;14.300;2023-05-10T08:45:56;100566.00;;;18.39;44.22
17593;BME280;8915;51.760;14.300;2023-05-10T08:48:23;100561.03;;;18.41;45.59
17593;BME280;8915;51.760;14.300;2023-05-10T08:50:52;100564.13;;;18.50;44.54
17593;BME280;8915;51.760;14.300;2023-05-10T08:53:24;100575.59;;;18.58;44.86
17593;BME280;8915;51.760;14.300;2023-05-10T08:55:51;100566.44;;;18.62;43.37
17593;BME280;8915;51.760;14.300;2023-05-10T08:58:18;100571.03;;;18.69;43.84
17593;BME280;8915;51.760;14.300;2023-05-10T09:00:45;100572.56;;;18.77;44.10
17593;BME280;8915;51.760;14.300;2023-05-10T09:03:13;100574.88;;;18.82;44.01
17593;BME280;8915;51.760;14.300;2023-05-10T09:05:40;100564.19;;;18.89;41.46
17593;BME280;8915;51.760;14.300;2023-05-10T09:08:07;100566.09;;;18.92;42.32
17593;BME280;8915;51.760;14.300;2023-05-10T09:10:36;100565.69;;;19.00;43.70
17593;BME280;8915;51.760;14.300;2023-05-10T09:13:03;100566.47;;;19.04;43.01
17593;BME280;8915;51.760;14.300;2023-05-10T09:15:30;100577.97;;;19.08;43.46
17593;BME280;8915;51.760;14.300;2023-05-10T09:17:57;100568.78;;;19.13;44.44
17593;BME280;8915;51.760;14.300;2023-05-10T09:20:24;100568.78;;;19.20;43.26
17593;BME280;8915;51.760;14.300;2023-05-10T09:22:50;100574.16;;;19.27;43.75
17593;BME280;8915;51.760;14.300;2023-05-10T09:25:17;100573.78;;;19.32;42.27
17593;BME280;8915;51.760;14.300;2023-05-10T09:27:46;100574.16;;;19.41;43.16
17593;BME280;8915;51.760;14.300;2023-05-10T09:30:15;100575.28;;;19.47;43.03
17593;BME280;8915;51.760;14.300;2023-05-10T09:32:43;100578.38;;;19.52;43.12
17593;BME280;8915;51.760;14.300;2023-05-10T09:35:11;100572.97;;;19.59;43.17
17593;BME280;8915;51.760;14.300;2023-05-10T09:37:39;100574.91;;;19.66;42.35
17593;BME280;8915;51.760;14.300;2023-05-10T09:40:10;100564.53;;;19.71;40.78
17593;BME280;8915;51.760;14.300;2023-05-10T09:42:38;100559.16;;;19.75;42.32
17593;BME280;8915;51.760;14.300;2023-05-10T09:45:06;100561.84;;;19.82;40.85
17593;BME280;8915;51.760;14.300;2023-05-10T09:47:33;100562.97;;;19.88;42.61
17593;BME280;8915;51.760;14.300;2023-05-10T09:50:00;100562.94;;;19.95;42.66
17593;BME280;8915;51.760;14.300;2023-05-10T09:52:30;100573.22;;;20.03;40.97
17593;BME280;8915;51.760;14.300;2023-05-10T09:54:57;100562.16;;;20.12;41.47
17593;BME280;8915;51.760;14.300;2023-05-10T09:57:24;100565.19;;;20.17;41.24
17593;BME280;8915;51.760;14.300;2023-05-10T09:59:50;100554.81;;;20.23;40.76
17593;BME280;8915;51.760;14.300;2023-05-10T10:02:20;100560.91;;;20.30;40.44
17593;BME280;8915;51.760;14.300;2023-05-10T10:04:49;100569.69;;;20.38;39.74
17593;BME280;8915;51.760;14.300;2023-05-10T10:07:22;100559.31;;;20.43;40.90
17593;BME280;8915;51.760;14.300;2023-05-10T10:09:48;100555.47;;;20.48;40.86
17593;BME280;8915;51.760;14.300;2023-05-10T10:12:15;100555.03;;;20.53;40.48
17593;BME280;8915;51.760;14.300;2023-05-10T10:14:43;100548.13;;;20.59;39.81
17593;BME280;8915;51.760;14.300;2023-05-10T10:17:09;100554.97;;;20.63;39.67
17593;BME280;8915;51.760;14.300;2023-05-10T10:19:37;100546.53;;;20.65;40.69
17593;BME280;8915;51.760;14.300;2023-05-10T10:22:04;100552.63;;;20.72;40.18
17593;BME280;8915;51.760;14.300;2023-05-10T10:24:30;100551.44;;;20.77;40.42
17593;BME280;8915;51.760;14.300;2023-05-10T10:27:03;100552.91;;;20.81;38.20
17593;BME280;8915;51.760;14.300;2023-05-10T10:29:36;100549.84;;;20.83;38.59
17593;BME280;8915;51.760;14.300;2023-05-10T10:32:11;100542.53;;;20.87;39.00
17593;BME280;8915;51.760;14.300;2023-05-10T10:34:45;100552.88;;;20.92;39.04
17593;BME280;8915;51.760;14.300;2023-05-10T10:37:11;100546.31;;;20.96;39.49
17593;BME280;8915;51.760;14.300;2023-05-10T10:39:37;100543.22;;;21.01;40.17
17593;BME280;8915;51.760;14.300;2023-05-10T10:42:04;100542.03;;;21.06;38.28
17593;BME280;8915;51.760;14.300;2023-05-10T10:44:36;100551.56;;;21.14;39.17
17593;BME280;8915;51.760;14.300;2023-05-10T10:47:20;100541.91;;;21.20;38.98
17593;BME280;8915;51.760;14.300;2023-05-10T10:49:52;100547.63;;;21.25;39.00
17593;BME280;8915;51.760;14.300;2023-05-10T10:52:24;100542.59;;;21.31;39.13
17593;BME280;8915;51.760;14.300;2023-05-10T10:54:58;100538.72;;;21.35;38.71
17593;BME280;8915;51.760;14.300;2023-05-10T10:57:25;100540.56;;;21.42;39.26
17593;BME280;8915;51.760;14.300;2023-05-10T11:00:28;100546.63;;;21.49;38.72
17593;BME280;8915;51.760;14.300;2023-05-10T11:02:57;100543.91;;;21.53;38.00
17593;BME280;8915;51.760;14.300;2023-05-10T11:05:40;100549.25;;;21.56;38.00
17593;BME280;8915;51.760;14.300;2023-05-10T11:08:09;100544.59;;;21.60;37.71
17593;BME280;8915;51.760;14.300;2023-05-10T11:10:36;100541.88;;;21.64;38.36
17593;BME280;8915;51.760;14.300;2023-05-10T11:13:04;100546.06;;;21.68;38.26
17593;BME280;8915;51.760;14.300;2023-05-10T11:15:35;100535.28;;;21.72;37.93
17593;BME280;8915;51.760;14.300;2023-05-10T11:18:16;100534.44;;;21.78;36.71
17593;BME280;8915;51.760;14.300;2023-05-10T11:20:43;100534.81;;;21.80;37.49
17593;BME280;8915;51.760;14.300;2023-05-10T11:23:12;100527.88;;;21.83;38.02
17593;BME280;8915;51.760;14.300;2023-05-10T11:25:42;100541.22;;;21.90;35.52
17593;BME280;8915;51.760;14.300;2023-05-10T11:28:09;100528.13;;;21.92;37.42
17593;BME280;8915;51.760;14.300;2023-05-10T11:30:38;100531.91;;;21.98;37.92
17593;BME280;8915;51.760;14.300;2023-05-10T11:33:05;100526.50;;;22.01;38.48
17593;BME280;8915;51.760;14.300;2023-05-10T11:35:36;100536.38;;;22.08;37.01
17593;BME280;8915;51.760;14.300;2023-05-10T11:38:05;100544.78;;;22.13;36.09
17593;BME280;8915;51.760;14.300;2023-05-10T11:40:31;100539.00;;;22.15;34.40
17593;BME280;8915;51.760;14.300;2023-05-10T11:42:58;100534.75;;;22.17;35.77
17593;BME280;8915;51.760;14.300;2023-05-10T11:45:25;100543.16;;;22.19;35.94
17593;BME280;8915;51.760;14.300;2023-05-10T11:47:54;100545.44;;;22.21;34.13
17593;BME280;8915;51.760;14.300;2023-05-10T11:50:21;100536.19;;;22.22;34.87
17593;BME280;8915;51.760;14.300;2023-05-10T11:52:50;100538.50;;;22.23;35.82
17593;BME280;8915;51.760;14.300;2023-05-10T11:55:17;100531.53;;;22.26;35.08
17593;BME280;8915;51.760;14.300;2023-05-10T11:57:43;100535.69;;;22.30;34.47
17593;BME280;8915;51.760;14.300;2023-05-10T12:00:11;100534.50;;;22.35;35.97
17593;BME280;8915;51.760;14.300;2023-05-10T12:02:38;100536.38;;;22.38;35.64
17593;BME280;8915;51.760;14.300;2023-05-10T12:05:07;100548.66;;;22.39;34.82
17593;BME280;8915;51.760;14.300;2023-05-10T12:07:34;100534.00;;;22.43;35.30
17593;BME280;8915;51.760;14.300;2023-05-10T12:10:07;100538.56;;;22.50;34.50
17593;BME280;8915;51.760;14.300;2023-05-10T12:12:36;100544.69;;;22.50;36.14
17593;BME280;8915;51.760;14.300;2023-05-10T12:15:04;100533.13;;;22.53;35.27
17593;BME280;8915;51.760;14.300;2023-05-10T12:17:31;100542.31;;;22.56;36.19
17593;BME280;8915;51.760;14.300;2023-05-10T12:19:59;100539.56;;;22.59;34.72
17593;BME280;8915;51.760;14.300;2023-05-10T12:22:26;100551.00;;;22.67;34.66
17593;BME280;8915;51.760;14.300;2023-05-10T12:24:53;100540.94;;;22.71;35.02
17593;BME280;8915;51.760;14.300;2023-05-10T12:27:19;100545.50;;;22.74;33.96
17593;BME280;8915;51.760;14.300;2023-05-10T12:29:45;100532.41;;;22.76;33.86
17593;BME280;8915;51.760;14.300;2023-05-10T12:32:14;100538.13;;;22.78;32.90
17593;BME280;8915;51.760;14.300;2023-05-10T12:34:40;100543.09;;;22.79;35.26
17593;BME280;8915;51.760;14.300;2023-05-10T12:37:06;100548.09;;;22.81;35.55
17593;BME280;8915;51.760;14.300;2023-05-10T12:39:41;100538.44;;;22.83;34.74
17593;BME280;8915;51.760;14.300;2023-05-10T12:42:07;100539.91;;;22.88;34.89
17593;BME280;8915;51.760;14.300;2023-05-10T12:44:34;100542.88;;;22.93;34.84
17593;BME280;8915;51.760;14.300;2023-05-10T12:47:00;100530.94;;;22.94;33.69
17593;BME280;8915;51.760;14.300;2023-05-10T12:49:27;100550.13;;;22.96;34.14
17593;BME280;8915;51.760;14.300;2023-05-10T12:51:53;100543.56;;;22.97;33.75
17593;BME280;8915;51.760;14.300;2023-05-10T12:54:19;100552.03;;;22.99;33.99
17593;BME280;8915;51.760;14.300;2023-05-10T12:56:47;100550.06;;;23.00;32.58
17593;BME280;8915;51.760;14.300;2023-05-10T12:59:13;100547.03;;;22.98;34.21